Time;durP1;ratioP1;P1;durP2;ratioP2;P2;SDS_P1;SDS_P2;PMS_P1;PMS_P2;Temp;Humidity;BMP_temperature;BMP_pressure;BME280_temperature;BME280_humidity;BME280_pressure;Samples;Min_cycle;Max_cycle;Signal;HPM_P1;HPM_P2
2021/09/22 00:00:41;;;;;;;0.10;0.10;;;;;;;17.35;62.90;99512.31;5029522;28;20377;-86
2021/09/22 00:03:06;;;;;;;0.10;0.10;;;;;;;17.33;62.15;99501.00;5029573;28;20021;-80
2021/09/22 00:05:32;;;;;;;0.10;0.10;;;;;;;17.32;61.97;99501.31;5029568;28;20461;-78
2021/09/22 00:07:58;;;;;;;0.10;0.10;;;;;;;17.31;62.61;99499.72;5029679;28;20029;-78
2021/09/22 00:10:24;;;;;;;0.10;0.10;;;;;;;17.31;63.00;99500.53;5029051;28;20017;-78
2021/09/22 00:12:50;;;;;;;0.10;0.10;;;;;;;17.31;62.99;99494.31;5012299;28;20120;-78
2021/09/22 00:15:20;;;;;;;0.00;0.00;;;;;;;17.27;62.73;99492.22;5013455;28;20507;-78
2021/09/22 00:17:46;;;;;;;0.00;0.00;;;;;;;17.29;62.89;99491.91;5013466;28;20396;-78
2021/09/22 00:20:13;;;;;;;0.10;0.10;;;;;;;17.29;62.71;99491.91;5016972;28;20116;-78
2021/09/22 00:22:38;;;;;;;0.10;0.10;;;;;;;17.27;62.72;99484.13;5013473;28;20160;-77
2021/09/22 00:25:05;;;;;;;0.00;0.00;;;;;;;17.26;62.81;99489.84;5013377;28;20117;-78
2021/09/22 00:27:31;;;;;;;0.10;0.10;;;;;;;17.27;62.85;99491.41;5014357;28;20022;-77
2021/09/22 00:29:58;;;;;;;0.10;0.10;;;;;;;17.23;62.90;99483.13;5013459;28;20037;-78
2021/09/22 00:32:24;;;;;;;0.10;0.10;;;;;;;17.24;62.88;99486.66;5012992;28;20380;-78
2021/09/22 00:34:50;;;;;;;0.10;0.10;;;;;;;17.23;63.09;99488.53;5014913;28;20022;-78
2021/09/22 00:37:15;;;;;;;0.10;0.10;;;;;;;17.23;63.41;99491.25;5012862;28;20052;-78
2021/09/22 00:39:40;;;;;;;0.05;0.05;;;;;;;17.24;63.12;99486.66;5013185;28;20053;-78
2021/09/22 00:42:06;;;;;;;0.03;0.03;;;;;;;17.23;63.41;99479.63;5013014;28;20022;-80
2021/09/22 00:44:45;;;;;;;0.10;0.10;;;;;;;17.22;64.03;99486.97;5012827;28;20045;-81
2021/09/22 00:47:15;;;;;;;0.00;0.00;;;;;;;17.23;64.17;99485.84;5013161;28;20029;-82
2021/09/22 00:49:41;;;;;;;0.10;0.10;;;;;;;17.21;64.34;99479.13;5012684;28;20030;-80
2021/09/22 00:52:06;;;;;;;0.10;0.10;;;;;;;17.22;64.99;99478.84;5012959;28;20030;-84
2021/09/22 00:54:32;;;;;;;0.10;0.10;;;;;;;17.18;64.87;99475.16;5012641;28;20049;-87
2021/09/22 00:56:58;;;;;;;0.10;0.10;;;;;;;17.15;64.60;99483.09;5012600;28;20112;-88
2021/09/22 00:59:23;;;;;;;0.10;0.10;;;;;;;17.09;64.47;99480.50;5012677;28;20057;-87
2021/09/22 01:01:50;;;;;;;0.10;0.10;;;;;;;17.05;64.51;99478.72;5012670;28;20083;-86
2021/09/22 01:04:16;;;;;;;0.10;0.10;;;;;;;17.02;64.68;99474.75;5012327;28;20088;-77
2021/09/22 01:06:42;;;;;;;0.10;0.10;;;;;;;17.02;64.69;99474.75;5012629;28;20021;-80
2021/09/22 01:09:08;;;;;;;0.35;0.35;;;;;;;16.99;64.33;99466.47;5015633;28;20018;-81
2021/09/22 01:11:35;;;;;;;0.10;0.10;;;;;;;16.96;64.63;99470.56;5012216;28;20040;-80
2021/09/22 01:14:01;;;;;;;0.20;0.20;;;;;;;16.91;64.61;99466.06;5012574;28;20052;-81
2021/09/22 01:16:26;;;;;;;0.35;0.17;;;;;;;16.86;64.43;99470.81;5012267;28;20057;-80
2021/09/22 01:18:51;;;;;;;0.00;0.00;;;;;;;16.78;64.21;99473.16;5012052;28;20042;-77
2021/09/22 01:21:19;;;;;;;0.10;0.10;;;;;;;16.72;64.59;99471.66;5012084;28;20113;-77
2021/09/22 01:23:44;;;;;;;0.10;0.10;;;;;;;16.67;64.56;99477.16;5013401;28;20477;-77
2021/09/22 01:26:10;;;;;;;0.17;0.17;;;;;;;16.64;64.41;99467.00;5012254;28;20129;-77
2021/09/22 01:28:35;;;;;;;0.00;0.00;;;;;;;16.62;65.11;99455.69;5012229;28;20026;-78
2021/09/22 01:31:02;;;;;;;0.10;0.10;;;;;;;16.59;64.92;99454.41;5021672;28;20087;-79
2021/09/22 01:33:28;;;;;;;0.10;0.10;;;;;;;16.59;65.24;99450.91;5031856;28;20029;-80
2021/09/22 01:35:53;;;;;;;0.10;0.10;;;;;;;16.55;64.77;99448.03;5031878;28;20028;-78
2021/09/22 01:38:24;;;;;;;0.10;0.10;;;;;;;16.53;64.83;99446.72;5031633;28;20068;-78
2021/09/22 01:40:56;;;;;;;0.10;0.10;;;;;;;16.54;65.05;99453.72;5031786;28;20067;-77
2021/09/22 01:43:22;;;;;;;0.10;0.10;;;;;;;16.51;64.52;99447.03;5032876;28;20034;-76
2021/09/22 01:45:47;;;;;;;0.10;0.10;;;;;;;16.53;64.67;99442.13;5032952;28;20095;-76
2021/09/22 01:48:13;;;;;;;0.10;0.10;;;;;;;16.56;64.16;99438.03;5032894;28;20469;-84
2021/09/22 01:50:38;;;;;;;0.10;0.10;;;;;;;16.58;63.80;99449.31;5030042;28;20029;-85
2021/09/22 01:53:04;;;;;;;0.10;0.10;;;;;;;16.57;63.47;99443.09;5032162;28;20182;-87
2021/09/22 01:55:29;;;;;;;0.10;0.10;;;;;;;16.59;63.06;99443.59;5031202;28;20025;-84
2021/09/22 01:57:55;;;;;;;0.10;0.10;;;;;;;16.60;62.74;99436.28;5031441;28;20060;-85
2021/09/22 02:00:21;;;;;;;0.05;0.05;;;;;;;16.60;62.65;99434.41;5031293;28;20103;-84
2021/09/22 02:02:46;;;;;;;0.10;0.10;;;;;;;16.62;62.67;99426.00;5018279;28;20030;-83
2021/09/22 02:05:12;;;;;;;0.10;0.10;;;;;;;16.63;62.58;99425.69;5031564;28;20036;-81
2021/09/22 02:07:37;;;;;;;0.10;0.10;;;;;;;16.61;62.59;99427.91;5021867;28;20111;-78
2021/09/22 02:10:04;;;;;;;0.10;0.10;;;;;;;16.57;63.12;99424.19;5011393;28;20397;-77
2021/09/22 02:12:30;;;;;;;0.10;0.10;;;;;;;16.59;63.10;99435.50;5012391;28;20175;-77
2021/09/22 02:14:56;;;;;;;0.10;0.10;;;;;;;16.59;63.15;99432.03;5012722;28;20458;-77
2021/09/22 02:17:23;;;;;;;0.10;0.10;;;;;;;16.61;62.88;99435.19;5010657;28;20029;-80
2021/09/22 02:19:48;;;;;;;0.00;0.00;;;;;;;16.62;62.48;99426.81;5020243;28;20167;-80
2021/09/22 02:22:14;;;;;;;0.05;0.05;;;;;;;16.61;61.75;99421.69;5030955;28;20053;-81
2021/09/22 02:24:43;;;;;;;0.10;0.10;;;;;;;16.64;61.78;99427.28;5030603;28;20130;-81
2021/09/22 02:27:15;;;;;;;0.10;0.10;;;;;;;16.66;61.36;99426.97;5030685;28;20494;-83
2021/09/22 02:29:41;;;;;;;0.00;0.00;;;;;;;16.65;61.42;99422.69;5030593;28;20388;-82
2021/09/22 02:32:07;;;;;;;0.08;0.08;;;;;;;16.71;61.41;99423.34;5024433;28;20029;-78
2021/09/22 02:34:33;;;;;;;0.10;0.10;;;;;;;16.71;61.71;99423.34;5010005;28;20499;-77
2021/09/22 02:36:58;;;;;;;0.75;0.43;;;;;;;16.72;61.20;99424.94;5011980;28;20105;-77
2021/09/22 02:39:24;;;;;;;0.10;0.10;;;;;;;16.70;61.78;99419.84;5010679;28;20028;-77
2021/09/22 02:41:49;;;;;;;0.08;0.08;;;;;;;16.71;61.64;99428.75;5011009;28;20040;-78
2021/09/22 02:44:15;;;;;;;0.10;0.10;;;;;;;16.69;61.51;99422.88;5010763;28;20374;-78
2021/09/22 02:46:41;;;;;;;0.00;0.00;;;;;;;16.69;61.57;99431.75;5010626;28;20026;-81
2021/09/22 02:49:06;;;;;;;0.10;0.10;;;;;;;16.70;61.21;99427.97;5011045;28;20049;-80
2021/09/22 02:51:33;;;;;;;0.00;0.00;;;;;;;16.64;61.46;99416.47;5010585;28;20028;-79
2021/09/22 02:53:58;;;;;;;0.00;0.00;;;;;;;16.62;61.60;99426.00;5010812;28;20155;-81
2021/09/22 02:56:24;;;;;;;0.05;0.05;;;;;;;16.60;61.49;99429.00;5010405;28;20055;-78
2021/09/22 02:58:49;;;;;;;0.68;0.57;;;;;;;16.55;60.62;99431.00;5012232;28;20100;-77
2021/09/22 03:01:15;;;;;;;0.10;0.10;;;;;;;16.53;60.96;99428.63;5011731;28;20080;-77
2021/09/22 03:03:40;;;;;;;0.00;0.00;;;;;;;16.49;60.02;99444.66;5010354;28;20076;-78
2021/09/22 03:06:05;;;;;;;0.10;0.10;;;;;;;16.44;59.84;99442.06;5010638;28;20049;-78
2021/09/22 03:08:31;;;;;;;0.15;0.15;;;;;;;16.41;59.60;99439.19;5011333;28;20148;-79
2021/09/22 03:10:57;;;;;;;0.00;0.00;;;;;;;16.39;59.34;99446.78;5010536;28;20447;-79
2021/09/22 03:13:23;;;;;;;0.10;0.10;;;;;;;16.33;58.99;99443.38;5010277;28;20431;-78
2021/09/22 03:15:49;;;;;;;0.00;0.00;;;;;;;16.30;58.84;99447.50;5010260;28;20120;-79
2021/09/22 03:18:15;;;;;;;0.10;0.10;;;;;;;16.26;58.56;99440.31;5010168;28;20069;-78
2021/09/22 03:20:40;;;;;;;0.15;0.15;;;;;;;16.19;58.63;99438.03;5021695;28;20496;-79
2021/09/22 03:23:06;;;;;;;0.10;0.10;;;;;;;16.16;58.58;99438.63;5031298;28;20026;-79
2021/09/22 03:25:31;;;;;;;0.35;0.35;;;;;;;16.14;58.63;99427.34;5028069;28;20060;-80
2021/09/22 03:27:56;;;;;;;0.10;0.10;;;;;;;16.12;58.84;99429.56;5016159;28;20038;-81
2021/09/22 03:30:22;;;;;;;0.25;0.25;;;;;;;16.12;58.47;99424.16;5028320;28;20025;-79
2021/09/22 03:32:47;;;;;;;0.00;0.00;;;;;;;16.08;58.51;99428.56;5017931;28;20378;-78
2021/09/22 03:35:13;;;;;;;0.10;0.10;;;;;;;16.05;58.54;99415.69;5031524;28;20032;-79
2021/09/22 03:37:38;;;;;;;0.10;0.10;;;;;;;16.07;58.39;99416.19;5016048;28;20039;-79
2021/09/22 03:40:05;;;;;;;0.00;0.00;;;;;;;16.05;58.39;99416.50;5042984;28;20036;-79
2021/09/22 03:42:31;;;;;;;0.65;0.65;;;;;;;16.05;58.18;99423.78;5011230;28;20022;-78
2021/09/22 03:44:56;;;;;;;0.10;0.10;;;;;;;16.06;58.13;99412.66;5013586;28;20023;-79
2021/09/22 03:47:22;;;;;;;0.10;0.10;;;;;;;15.99;58.05;99414.97;5034242;28;20208;-79
2021/09/22 03:49:47;;;;;;;0.10;0.10;;;;;;;15.96;58.61;99418.31;5033280;28;20071;-79
2021/09/22 03:52:13;;;;;;;0.10;0.10;;;;;;;15.92;58.56;99414.63;5033151;28;20483;-80
2021/09/22 03:54:38;;;;;;;0.00;0.00;;;;;;;15.91;58.27;99415.72;5033069;28;20033;-78
2021/09/22 03:57:04;;;;;;;0.10;0.10;;;;;;;15.87;58.44;99422.78;5033029;28;20028;-81
2021/09/22 03:59:29;;;;;;;0.32;0.32;;;;;;;15.84;58.29;99419.63;5032908;28;20361;-79
2021/09/22 04:01:54;;;;;;;0.30;0.30;;;;;;;15.80;58.88;99415.09;5033201;28;20465;-79
2021/09/22 04:04:20;;;;;;;0.10;0.10;;;;;;;15.71;59.33;99408.81;5033228;28;20028;-78
2021/09/22 04:06:45;;;;;;;0.20;0.20;;;;;;;15.65;59.71;99403.53;5033107;28;20018;-78
2021/09/22 04:09:14;;;;;;;0.47;0.40;;;;;;;15.57;60.06;99406.91;5033410;28;20376;-79
2021/09/22 04:11:39;;;;;;;0.10;0.10;;;;;;;15.53;59.98;99406.72;5033048;28;20064;-78
2021/09/22 04:14:05;;;;;;;0.70;0.70;;;;;;;15.49;60.55;99391.44;5033259;28;20045;-78
2021/09/22 04:16:30;;;;;;;0.10;0.10;;;;;;;15.47;61.01;99394.44;5032692;28;20025;-78
2021/09/22 04:18:56;;;;;;;0.10;0.10;;;;;;;15.47;61.30;99391.75;5034445;28;20045;-77
2021/09/22 04:21:21;;;;;;;0.05;0.05;;;;;;;15.49;61.00;99397.66;5026963;28;20044;-76
2021/09/22 04:23:47;;;;;;;0.10;0.10;;;;;;;15.48;60.62;99397.94;5025519;28;20051;-76
2021/09/22 04:26:12;;;;;;;0.10;0.10;;;;;;;15.46;60.55;99398.22;5022627;28;20018;-76
2021/09/22 04:28:38;;;;;;;0.10;0.10;;;;;;;15.41;60.65;99398.34;5032216;28;20043;-76
2021/09/22 04:31:03;;;;;;;0.35;0.35;;;;;;;15.45;60.66;99401.22;5027260;28;20048;-77
2021/09/22 04:33:29;;;;;;;1.33;0.88;;;;;;;15.44;60.63;99397.75;5020387;28;20033;-79
2021/09/22 04:35:55;;;;;;;0.22;0.22;;;;;;;15.44;60.70;99388.84;5029174;28;20392;-77
2021/09/22 04:38:22;;;;;;;0.80;0.77;;;;;;;15.44;60.52;99394.25;5020657;28;20048;-77
2021/09/22 04:40:47;;;;;;;0.10;0.10;;;;;;;15.45;61.05;99396.66;5018513;28;20021;-79
2021/09/22 04:43:12;;;;;;;0.52;0.52;;;;;;;15.40;60.97;99394.03;5025049;28;20030;-77
2021/09/22 04:45:38;;;;;;;0.28;0.28;;;;;;;15.41;61.36;99397.56;5025548;28;20043;-78
2021/09/22 04:48:05;;;;;;;0.35;0.35;;;;;;;15.41;61.64;99394.84;5026070;28;20030;-79
2021/09/22 04:50:31;;;;;;;0.13;0.13;;;;;;;15.40;61.64;99391.34;5015795;28;20022;-78
2021/09/22 04:52:56;;;;;;;0.10;0.10;;;;;;;15.42;61.03;99391.06;5022368;28;20026;-79
2021/09/22 04:55:22;;;;;;;0.10;0.10;;;;;;;15.44;61.34;99388.84;5017944;28;20048;-80
2021/09/22 04:57:47;;;;;;;0.10;0.10;;;;;;;15.46;60.54;99390.16;5018630;28;20480;-79
2021/09/22 05:00:13;;;;;;;0.32;0.32;;;;;;;15.46;61.10;99382.06;5014684;28;20030;-78
2021/09/22 05:02:40;;;;;;;0.00;0.00;;;;;;;15.47;60.37;99386.34;5020774;28;20032;-77
2021/09/22 05:05:06;;;;;;;0.00;0.00;;;;;;;15.48;60.61;99381.78;5031127;28;20029;-78
2021/09/22 05:07:31;;;;;;;0.00;0.00;;;;;;;15.51;60.72;99397.34;5032868;28;20029;-76
2021/09/22 05:09:56;;;;;;;0.10;0.10;;;;;;;15.54;60.28;99399.44;5012456;28;20073;-83
2021/09/22 05:12:22;;;;;;;1.75;0.65;;;;;;;15.52;60.82;99396.25;5012435;28;20021;-79
2021/09/22 05:14:47;;;;;;;0.05;0.05;;;;;;;15.54;60.77;99402.16;5015213;28;20038;-78
2021/09/22 05:17:13;;;;;;;0.20;0.20;;;;;;;15.56;60.82;99399.13;5017878;28;20040;-79
2021/09/22 05:19:38;;;;;;;0.05;0.05;;;;;;;15.58;60.49;99396.94;5021803;28;20058;-78
2021/09/22 05:22:04;;;;;;;0.25;0.25;;;;;;;15.61;60.18;99396.34;5025207;28;20032;-78
2021/09/22 05:24:30;;;;;;;0.10;0.10;;;;;;;15.64;60.47;99391.13;5014046;28;20393;-80
2021/09/22 05:26:57;;;;;;;0.17;0.17;;;;;;;15.66;60.38;99382.75;5015874;28;20022;-77
2021/09/22 05:29:22;;;;;;;0.00;0.00;;;;;;;15.73;59.89;99387.75;5016228;28;20036;-77
2021/09/22 05:31:48;;;;;;;0.00;0.00;;;;;;;15.79;60.00;99389.22;5015007;28;20026;-77
2021/09/22 05:34:13;;;;;;;0.05;0.05;;;;;;;15.83;59.90;99395.63;5017789;28;20048;-77
2021/09/22 05:36:39;;;;;;;0.10;0.10;;;;;;;15.85;59.41;99388.03;5022203;28;20033;-77
2021/09/22 05:39:04;;;;;;;0.05;0.05;;;;;;;15.91;59.56;99392.22;5020778;28;20030;-76
2021/09/22 05:41:30;;;;;;;0.10;0.10;;;;;;;15.95;59.37;99387.84;5023336;28;20462;-78
2021/09/22 05:43:55;;;;;;;0.10;0.10;;;;;;;16.01;59.56;99391.22;5013685;28;20052;-79
2021/09/22 05:46:21;;;;;;;0.30;0.30;;;;;;;16.05;59.96;99389.50;5012099;28;20038;-79
2021/09/22 05:48:46;;;;;;;0.03;0.03;;;;;;;16.06;60.32;99388.38;5024065;28;20136;-78
2021/09/22 05:51:12;;;;;;;0.10;0.10;;;;;;;16.09;59.92;99389.72;5031401;28;20022;-79
2021/09/22 05:53:40;;;;;;;0.10;0.10;;;;;;;16.10;59.78;99389.41;5024390;28;20041;-78
2021/09/22 05:56:05;;;;;;;0.00;0.00;;;;;;;16.13;60.05;99385.28;5015865;28;20092;-78
2021/09/22 05:58:30;;;;;;;0.00;0.00;;;;;;;16.16;59.99;99381.97;5014814;28;20033;-77
2021/09/22 06:00:57;;;;;;;0.00;0.00;;;;;;;16.17;60.32;99383.56;5017089;28;20030;-78
2021/09/22 06:03:22;;;;;;;0.10;0.10;;;;;;;16.21;60.28;99389.97;5031179;28;20460;-78
2021/09/22 06:05:48;;;;;;;0.10;0.10;;;;;;;16.21;60.50;99383.75;5031023;28;20056;-78
2021/09/22 06:08:13;;;;;;;0.00;0.00;;;;;;;16.23;60.75;99381.56;5011782;28;20096;-78
2021/09/22 06:10:39;;;;;;;0.00;0.00;;;;;;;16.25;61.07;99372.06;5011576;28;20472;-80
2021/09/22 06:13:05;;;;;;;0.10;0.10;;;;;;;16.26;61.26;99379.06;5016208;28;20076;-80
2021/09/22 06:15:31;;;;;;;0.10;0.10;;;;;;;16.23;61.48;99368.06;5022013;28;20030;-83
2021/09/22 06:17:57;;;;;;;0.00;0.00;;;;;;;16.32;61.48;99366.25;5010944;28;20053;-78
2021/09/22 06:20:23;;;;;;;0.10;0.10;;;;;;;16.38;61.62;99372.28;5011137;28;20041;-79
2021/09/22 06:22:48;;;;;;;0.10;0.10;;;;;;;16.37;61.84;99365.28;5010899;28;20466;-79
2021/09/22 06:25:15;;;;;;;1.35;0.63;;;;;;;16.42;61.83;99378.69;5015419;28;20028;-79
2021/09/22 06:27:41;;;;;;;0.10;0.10;;;;;;;16.43;61.79;99370.28;5030534;28;20034;-79
2021/09/22 06:30:07;;;;;;;0.00;0.00;;;;;;;16.44;62.00;99376.47;5030673;28;20361;-80
2021/09/22 06:32:33;;;;;;;0.10;0.10;;;;;;;16.45;62.20;99376.19;5030500;28;20480;-80
2021/09/22 06:34:58;;;;;;;0.10;0.10;;;;;;;16.47;62.26;99381.25;5028097;28;20053;-79
2021/09/22 06:37:24;;;;;;;0.10;0.10;;;;;;;16.44;62.76;99373.78;5010954;28;20030;-80
2021/09/22 06:39:49;;;;;;;0.57;0.57;;;;;;;16.47;62.75;99382.06;5024552;28;20465;-81
2021/09/22 06:42:15;;;;;;;0.20;0.20;;;;;;;16.48;62.70;99380.16;5030596;28;20376;-79
2021/09/22 06:44:40;;;;;;;0.00;0.00;;;;;;;16.46;62.57;99379.66;5030065;28;20550;-80
2021/09/22 06:47:05;;;;;;;0.03;0.03;;;;;;;16.45;62.94;99381.59;5028657;28;20120;-79
2021/09/22 06:49:31;;;;;;;0.05;0.05;;;;;;;16.46;62.89;99382.38;5030167;28;20087;-80
2021/09/22 06:51:57;;;;;;;0.10;0.10;;;;;;;16.44;62.82;99385.38;5030404;28;20095;-80
2021/09/22 06:54:22;;;;;;;0.10;0.10;;;;;;;16.45;63.00;99388.88;5030440;28;20108;-83
2021/09/22 06:56:48;;;;;;;0.10;0.10;;;;;;;16.44;63.57;99379.16;5023241;28;20082;-82
2021/09/22 06:59:13;;;;;;;0.00;0.00;;;;;;;16.42;63.14;99382.19;5010461;28;20156;-81
2021/09/22 07:01:42;;;;;;;0.00;0.00;;;;;;;16.45;63.12;99386.16;5015046;28;20029;-81
2021/09/22 07:04:08;;;;;;;0.10;0.10;;;;;;;16.46;63.42;99380.44;5030182;28;20108;-81
2021/09/22 07:06:33;;;;;;;0.00;0.00;;;;;;;16.51;63.60;99373.34;5029996;28;20108;-80
2021/09/22 07:08:59;;;;;;;0.20;0.20;;;;;;;16.55;63.07;99375.13;5023453;28;20030;-81
2021/09/22 07:11:24;;;;;;;0.10;0.10;;;;;;;16.61;63.14;99381.19;5015303;28;20036;-87
2021/09/22 07:13:50;;;;;;;0.10;0.10;;;;;;;16.68;63.06;99372.66;5018671;28;20021;-82
2021/09/22 07:16:16;;;;;;;0.10;0.10;;;;;;;16.71;61.36;99378.25;5030598;28;20488;-83
2021/09/22 07:18:44;;;;;;;0.00;0.00;;;;;;;16.78;61.56;99375.91;5025249;28;20064;-79
2021/09/22 07:21:10;;;;;;;0.10;0.10;;;;;;;16.86;61.17;99379.75;5028851;28;20036;-82
2021/09/22 07:23:36;;;;;;;0.00;0.00;;;;;;;16.95;60.29;99382.53;5017094;28;20026;-77
2021/09/22 07:26:03;;;;;;;0.10;0.10;;;;;;;17.01;60.24;99381.28;5019316;28;20048;-79
2021/09/22 07:28:30;;;;;;;0.10;0.10;;;;;;;17.07;59.34;99369.22;5029325;28;20036;-79
2021/09/22 07:30:56;;;;;;;0.10;0.10;;;;;;;17.12;58.47;99379.13;5029595;28;20026;-78
2021/09/22 07:33:21;;;;;;;0.10;0.10;;;;;;;17.17;57.95;99375.47;5029826;28;20029;-79
2021/09/22 07:35:47;;;;;;;0.00;0.00;;;;;;;17.18;57.80;99368.97;5030814;28;20017;-80
2021/09/22 07:38:13;;;;;;;0.10;0.10;;;;;;;17.20;57.66;99358.63;5029726;28;20056;-80
2021/09/22 07:40:39;;;;;;;0.20;0.20;;;;;;;17.21;57.67;99361.03;5029439;28;20469;-80
2021/09/22 07:43:04;;;;;;;0.10;0.10;;;;;;;17.25;57.95;99364.69;5029587;28;20021;-78
2021/09/22 07:45:30;;;;;;;0.28;0.28;;;;;;;17.28;57.21;99369.50;5031295;28;20025;-78
2021/09/22 07:47:55;;;;;;;0.10;0.10;;;;;;;17.31;56.66;99362.66;5029378;28;20045;-80
2021/09/22 07:50:21;;;;;;;0.40;0.40;;;;;;;17.34;56.65;99359.31;5029694;28;20017;-79
2021/09/22 07:52:46;;;;;;;0.10;0.10;;;;;;;17.38;56.60;99368.41;5029460;28;20400;-79
2021/09/22 07:55:12;;;;;;;0.10;0.10;;;;;;;17.42;56.30;99355.06;5029786;28;20492;-79
2021/09/22 07:57:38;;;;;;;0.10;0.10;;;;;;;17.41;56.03;99348.84;5029136;28;20064;-79
2021/09/22 08:00:06;;;;;;;0.10;0.10;;;;;;;17.39;55.93;99340.28;5029637;28;20018;-79
2021/09/22 08:02:32;;;;;;;;;;;;;;;17.47;56.12;99346.00;5029968;28;20033;-79
2021/09/22 08:04:58;;;;;;;0.60;0.60;;;;;;;17.49;56.22;99341.06;5029374;28;20421;-79
2021/09/22 08:07:23;;;;;;;0.10;0.10;;;;;;;17.55;55.78;99329.00;5029458;28;20018;-79
2021/09/22 08:09:49;;;;;;;0.00;0.00;;;;;;;17.61;56.41;99327.72;5029294;28;20036;-79
2021/09/22 08:12:15;;;;;;;0.10;0.10;;;;;;;17.64;55.56;99308.19;5030564;28;20100;-79
2021/09/22 08:14:40;;;;;;;0.10;0.10;;;;;;;17.75;55.59;99324.91;5030162;28;20032;-79
2021/09/22 08:17:06;;;;;;;0.10;0.10;;;;;;;17.81;54.84;99326.34;5030731;28;20025;-79
2021/09/22 08:19:33;;;;;;;0.10;0.10;;;;;;;17.85;54.30;99329.19;5029159;28;20163;-79
2021/09/22 08:21:59;;;;;;;0.45;0.45;;;;;;;17.86;54.01;99311.88;5029318;28;20254;-79
2021/09/22 08:24:24;;;;;;;0.10;0.10;;;;;;;17.89;54.28;99319.31;5029200;28;20029;-79
2021/09/22 08:26:52;;;;;;;0.10;0.10;;;;;;;17.91;53.17;99317.88;5029156;28;20022;-79
2021/09/22 08:29:19;;;;;;;0.08;0.08;;;;;;;17.91;52.88;99319.81;5029338;28;20388;-79
2021/09/22 08:31:44;;;;;;;0.17;0.17;;;;;;;17.90;53.17;99318.22;5029026;28;20112;-79
2021/09/22 08:34:10;;;;;;;0.10;0.10;;;;;;;17.85;52.88;99312.97;5032084;28;20036;-79
2021/09/22 08:36:35;;;;;;;0.00;0.00;;;;;;;17.79;53.11;99317.72;5032934;28;20465;-79
2021/09/22 08:39:01;;;;;;;0.63;0.63;;;;;;;17.71;53.36;99316.63;5032872;28;20053;-79
2021/09/22 08:41:26;;;;;;;0.10;0.10;;;;;;;17.63;53.31;99309.28;5032877;28;20022;-79
2021/09/22 08:43:53;;;;;;;0.10;0.10;;;;;;;17.56;53.58;99303.56;5032531;28;20044;-79
2021/09/22 08:46:19;;;;;;;0.00;0.00;;;;;;;17.52;53.08;99297.19;5032612;28;20025;-79
2021/09/22 08:48:45;;;;;;;0.10;0.10;;;;;;;17.44;52.85;99294.16;5032425;28;20025;-79
2021/09/22 08:51:10;;;;;;;0.25;0.25;;;;;;;17.41;52.10;99297.47;5032587;28;20036;-79
2021/09/22 08:53:36;;;;;;;0.30;0.30;;;;;;;17.41;51.20;99294.00;5034307;28;20029;-80
2021/09/22 08:56:02;;;;;;;0.10;0.10;;;;;;;17.37;50.73;99288.41;5032570;28;20024;-79
2021/09/22 08:58:28;;;;;;;0.57;0.40;;;;;;;17.34;49.53;99278.22;5034058;28;20124;-79
2021/09/22 09:01:09;;;;;;;0.10;0.10;;;;;;;17.38;48.50;99287.31;5032360;28;20023;-80
2021/09/22 09:03:40;;;;;;;2.78;1.00;;;;;;;17.38;48.02;99272.97;5032191;28;20075;-79
2021/09/22 09:06:20;;;;;;;0.20;0.20;;;;;;;17.41;47.50;99272.38;5033269;28;20420;-80
2021/09/22 09:08:50;;;;;;;0.15;0.15;;;;;;;17.39;47.21;99274.56;5031959;28;20369;-80
2021/09/22 09:11:23;;;;;;;0.10;0.10;;;;;;;17.37;46.95;99266.78;5032021;28;20028;-80
2021/09/22 09:13:50;;;;;;;0.45;0.43;;;;;;;17.35;47.03;99266.31;5032159;28;20053;-80
2021/09/22 09:16:17;;;;;;;0.30;0.30;;;;;;;17.33;47.14;99263.09;5032078;28;20021;-79
2021/09/22 09:18:45;;;;;;;0.10;0.10;;;;;;;17.37;47.07;99268.69;5031639;28;20067;-80
2021/09/22 09:21:10;;;;;;;0.10;0.10;;;;;;;17.32;46.35;99255.31;5032072;28;20025;-80
2021/09/22 09:23:36;;;;;;;0.40;0.40;;;;;;;17.29;46.62;99254.84;5031578;28;20060;-80
2021/09/22 09:26:04;;;;;;;0.20;0.20;;;;;;;17.32;46.47;99247.22;5031757;28;20095;-80
2021/09/22 09:28:30;;;;;;;0.00;0.00;;;;;;;17.38;46.61;99256.75;5032050;28;20483;-80
2021/09/22 09:31:16;;;;;;;0.20;0.20;;;;;;;17.46;47.53;99253.28;5031682;28;20083;-80
2021/09/22 09:33:52;;;;;;;0.10;0.10;;;;;;;17.52;46.85;99245.81;5030841;28;20488;-80
2021/09/22 09:36:45;;;;;;;0.10;0.10;;;;;;;17.51;46.39;99241.53;5032913;28;20026;-80
2021/09/22 09:39:12;;;;;;;0.10;0.10;;;;;;;17.57;45.62;99251.84;5031707;28;20025;-80
2021/09/22 09:41:42;;;;;;;0.25;0.25;;;;;;;17.58;45.30;99242.63;5031665;28;20021;-80
2021/09/22 09:44:10;;;;;;;0.22;0.22;;;;;;;17.62;45.45;99239.31;5031412;28;20029;-80
2021/09/22 09:46:37;;;;;;;0.10;0.10;;;;;;;17.62;45.03;99231.97;5031483;28;20018;-80
2021/09/22 09:49:10;;;;;;;0.20;0.20;;;;;;;17.68;44.91;99229.91;5047983;28;20128;-80
2021/09/22 09:51:39;;;;;;;0.20;0.20;;;;;;;17.67;43.81;99223.69;5031541;28;20504;-80
2021/09/22 09:54:14;;;;;;;0.10;0.10;;;;;;;17.63;43.37;99225.44;5031320;28;20037;-80
2021/09/22 09:56:40;;;;;;;0.20;0.20;;;;;;;17.63;42.67;99224.66;5031224;28;20021;-80
2021/09/22 09:59:06;;;;;;;0.10;0.10;;;;;;;17.59;42.31;99230.69;5031102;28;20076;-80
2021/09/22 10:01:41;;;;;;;0.10;0.10;;;;;;;17.59;42.66;99221.81;5031198;28;20380;-79
2021/09/22 10:04:09;;;;;;;0.00;0.00;;;;;;;17.54;42.20;99219.25;5030987;28;20053;-80
2021/09/22 10:06:35;;;;;;;0.03;0.03;;;;;;;17.50;41.57;99226.41;5030959;28;20034;-80
2021/09/22 10:09:01;;;;;;;0.10;0.10;;;;;;;17.48;41.99;99229.44;5030959;28;20045;-80
2021/09/22 10:11:27;;;;;;;0.20;0.20;;;;;;;17.48;41.76;99220.50;5031139;28;20548;-81
2021/09/22 10:13:53;;;;;;;0.10;0.10;;;;;;;17.43;40.87;99214.16;5030801;28;20025;-79
2021/09/22 10:16:20;;;;;;;0.17;0.17;;;;;;;17.41;41.17;99218.28;5031304;28;20369;-80
2021/09/22 10:18:48;;;;;;;0.10;0.10;;;;;;;17.42;41.48;99217.19;5030710;28;20554;-80
2021/09/22 10:21:18;;;;;;;0.05;0.05;;;;;;;17.42;41.16;99217.19;5031037;28;20078;-80
2021/09/22 10:23:44;;;;;;;0.35;0.35;;;;;;;17.42;40.44;99220.66;5030623;28;20033;-80
2021/09/22 10:26:11;;;;;;;0.20;0.20;;;;;;;17.41;41.12;99216.38;5033048;28;20529;-79
2021/09/22 10:28:42;;;;;;;0.38;0.38;;;;;;;17.40;40.90;99216.69;5030795;28;20026;-79
2021/09/22 10:31:23;;;;;;;0.10;0.10;;;;;;;17.41;41.08;99219.09;5030740;28;20024;-79
2021/09/22 10:33:48;;;;;;;0.10;0.10;;;;;;;17.40;40.89;99227.50;5031443;28;20025;-79
2021/09/22 10:36:16;;;;;;;0.60;0.60;;;;;;;17.36;40.73;99216.53;5030822;28;20018;-79
2021/09/22 10:38:45;;;;;;;0.00;0.00;;;;;;;17.37;40.71;99218.13;5030667;28;20051;-79
2021/09/22 10:41:23;;;;;;;0.30;0.30;;;;;;;17.36;40.77;99213.84;5030585;28;20059;-79
2021/09/22 10:43:49;;;;;;;;;;;;;;;17.34;40.79;99210.66;5030638;28;20029;-79
2021/09/22 10:46:19;;;;;;;0.10;0.10;;;;;;;17.27;40.74;99207.63;5030299;28;19915;-79
2021/09/22 10:48:51;;;;;;;0.10;0.10;;;;;;;17.23;40.24;99206.66;5030173;28;20029;-80
2021/09/22 10:51:29;;;;;;;0.10;0.10;;;;;;;17.18;40.33;99198.72;5030371;28;20033;-80
2021/09/22 10:54:11;;;;;;;;;;;;;;;17.15;40.38;99212.84;5030654;28;20018;-78
2021/09/22 10:56:49;;;;;;;0.05;0.05;;;;;;;17.08;40.58;99206.00;5029734;28;20371;-79
2021/09/22 10:59:43;;;;;;;0.25;0.25;;;;;;;17.07;40.68;99207.13;5030121;28;20411;-79
2021/09/22 11:02:10;;;;;;;0.35;0.35;;;;;;;17.04;40.57;99202.34;5017124;28;20087;-79
2021/09/22 11:04:56;;;;;;;0.10;0.10;;;;;;;17.03;40.57;99191.84;5030211;28;20408;-79
2021/09/22 11:07:22;;;;;;;0.10;0.10;;;;;;;16.99;40.73;99188.19;5030278;28;20021;-79
2021/09/22 11:09:47;;;;;;;0.10;0.10;;;;;;;16.97;40.10;99191.22;5030937;28;20025;-79
2021/09/22 11:12:14;;;;;;;0.10;0.10;;;;;;;16.96;40.40;99193.09;5030219;28;20104;-79
2021/09/22 11:14:42;;;;;;;0.00;0.00;;;;;;;16.99;40.66;99190.88;5030000;28;20029;-79
2021/09/22 11:17:26;;;;;;;0.20;0.20;;;;;;;16.92;40.48;99170.53;5029845;28;20025;-79
2021/09/22 11:19:57;;;;;;;0.20;0.20;;;;;;;16.96;40.35;99186.91;5029659;28;20026;-79
2021/09/22 11:22:28;;;;;;;0.10;0.10;;;;;;;16.96;39.85;99176.91;5029941;28;20064;-80
2021/09/22 11:25:05;;;;;;;0.10;0.10;;;;;;;16.96;40.30;99176.13;5029601;28;20025;-80
2021/09/22 11:27:31;;;;;;;0.45;0.45;;;;;;;16.99;40.27;99166.56;5030920;28;20022;-80
2021/09/22 11:30:03;;;;;;;1.65;0.73;;;;;;;16.99;40.08;99164.69;5029626;28;20055;-80
2021/09/22 11:32:31;;;;;;;0.25;0.25;;;;;;;16.99;39.16;99170.09;5029605;28;20040;-80